Itapuca, Brazil
Current Conditions -  °F | °C
As of 2:00 PM on Thursday 18 Dec 2014 (Local Time) from SBPF Reporting Station
Broken Clouds Broken Clouds  
Wind Chill: 77°   Ceiling: 5000
Heat Index: 79°   Visibility: 6mi
Dew Point: 61°   Wind: 9mph
Humidity: 57%   Direction: 280°W
Pressure: 29.91"   Gusts: NA
Location:  28.78°S, 52.17°W
Report Text: SBPF 181600Z 28008KT 9999 SCT030 BKN050 25/16 Q1013
Loading
Personal Weather Stations






























Interactive Weather Map New forecast layout! Learn more

10-Day Weather Forecast

Advertisements
Track Severe Weather on mobile